Date,TemperatureHighF,TemperatureAvgF,TemperatureLowF,DewpointHighF,DewpointAvgF,DewpointLowF,HumidityHigh,HumidityAvg,HumidityLow,PressureMaxIn,PressureMinIn,WindSpeedMaxMPH,WindSpeedAvgMPH,GustSpeedMaxMPH,PrecipitationSumIn
2013-1-1,60,52,44,58,51,41,97,95,89,30.19,29.94,12,1,13,2.28
2013-1-2,44,43,40,41,39,37,92,86,80,30.30,30.17,12,0,12,0.00
2013-1-3,51,43,37,39,36,33,93,77,51,30.45,30.29,9,0,12,0.00
2013-1-4,50,44,38,38,35,33,84,71,53,30.53,30.36,7,0,8,0.00
2013-1-5,46,43,41,43,41,35,96,91,68,30.42,30.26,7,0,7,0.61
2013-1-6,56,46,37,44,41,35,96,86,62,30.35,30.25,12,1,12,0.00
2013-1-7,58,44,31,43,37,30,98,79,48,30.37,30.17,10,0,11,0.01
2013-1-8,62,53,45,61,50,40,97,89,77,30.18,30.03,16,1,20,0.45
2013-1-9,65,63,61,64,62,60,98,97,96,30.16,30.03,12,1,12,3.79
2013-1-10,65,63,61,64,62,60,99,97,94,30.12,29.97,18,1,18,2.11
2013-1-11,71,62,49,65,57,48,98,84,59,30.06,29.94,11,0,11,0.04
2013-1-12,76,72,66,70,69,65,98,91,78,29.96,29.75,20,2,20,0.06
2013-1-13,72,54,43,68,52,40,95,91,74,30.18,29.71,20,2,20,0.77
2013-1-14,43,38,35,40,36,33,93,90,85,30.24,30.11,15,1,15,0.05
2013-1-15,36,35,34,34,33,32,95,94,92,30.15,30.02,10,1,10,0.33
2013-1-16,39,36,33,37,34,32,100,94,89,30.24,30.10,10,1,11,0.07
2013-1-17,56,42,31,38,34,29,95,77,47,30.49,30.22,10,0,10,0.07
2013-1-18,57,42,32,38,33,26,97,74,31,30.58,30.39,10,0,10,0.00
2013-1-19,61,44,31,45,38,30,96,80,50,30.39,30.23,9,0,9,0.00
2013-1-20,65,48,33,53,41,32,97,81,40,30.30,30.14,7,0,7,0.00
2013-1-21,67,49,38,53,43,36,97,80,57,30.26,30.15,12,0,12,0.00
2013-1-22,62,49,38,46,39,31,89,69,51,30.37,30.25,11,0,11,0.00
2013-1-23,73,56,40,55,48,39,97,78,44,30.38,30.24,12,1,12,0.00
2013-1-24,73,62,52,63,58,51,97,88,70,30.31,30.16,10,0,10,0.00
2013-1-25,76,65,56,63,59,55,98,82,55,30.20,30.07,16,1,18,0.01
2013-1-26,72,61,52,63,56,51,96,86,69,30.24,30.14,10,0,10,0.00
2013-1-27,76,63,49,62,57,48,98,83,60,30.22,30.11,14,1,15,0.00
2013-1-28,74,68,63,66,64,61,92,86,75,30.19,30.05,13,1,13,0.00
2013-1-29,77,71,66,70,67,64,94,88,73,30.05,29.65,25,3,25,0.07
2013-1-30,73,52,37,69,43,32,96,72,49,30.19,29.65,20,2,20,0.74
2013-1-31,63,47,31,36,32,26,94,60,28,30.32,30.19,10,0,10,0.74